sensor_id;sensor_type;location;lat;lon;timestamp;P1;durP1;ratioP1;P2;durP2;ratioP2
12088;SDS011;6107;49.078;8.578;2022-07-29T00:02:11;5.75;;;5.10;;
12088;SDS011;6107;49.078;8.578;2022-07-29T00:04:37;6.18;;;5.07;;
12088;SDS011;6107;49.078;8.578;2022-07-29T00:07:03;7.45;;;5.10;;
12088;SDS011;6107;49.078;8.578;2022-07-29T00:09:29;6.88;;;5.15;;
12088;SDS011;6107;49.078;8.578;2022-07-29T00:11:55;6.75;;;5.10;;
12088;SDS011;6107;49.078;8.578;2022-07-29T00:14:23;8.15;;;5.47;;
12088;SDS011;6107;49.078;8.578;2022-07-29T00:16:49;6.57;;;5.10;;
12088;SDS011;6107;49.078;8.578;2022-07-29T00:19:15;5.63;;;4.88;;
12088;SDS011;6107;49.078;8.578;2022-07-29T00:21:40;7.20;;;5.53;;
12088;SDS011;6107;49.078;8.578;2022-07-29T00:24:06;5.40;;;4.90;;
12088;SDS011;6107;49.078;8.578;2022-07-29T00:26:32;5.93;;;5.32;;
12088;SDS011;6107;49.078;8.578;2022-07-29T00:28:59;7.50;;;5.22;;
12088;SDS011;6107;49.078;8.578;2022-07-29T00:31:25;6.70;;;5.50;;
12088;SDS011;6107;49.078;8.578;2022-07-29T00:33:51;5.65;;;5.00;;
12088;SDS011;6107;49.078;8.578;2022-07-29T00:36:17;7.93;;;5.70;;
12088;SDS011;6107;49.078;8.578;2022-07-29T00:38:43;6.47;;;5.88;;
12088;SDS011;6107;49.078;8.578;2022-07-29T00:41:10;6.32;;;5.05;;
12088;SDS011;6107;49.078;8.578;2022-07-29T00:43:36;6.20;;;5.47;;
12088;SDS011;6107;49.078;8.578;2022-07-29T00:46:02;7.82;;;5.10;;
12088;SDS011;6107;49.078;8.578;2022-07-29T00:48:28;5.88;;;5.28;;
12088;SDS011;6107;49.078;8.578;2022-07-29T00:50:54;7.75;;;5.00;;
12088;SDS011;6107;49.078;8.578;2022-07-29T00:53:22;6.63;;;5.22;;
12088;SDS011;6107;49.078;8.578;2022-07-29T00:55:49;6.65;;;5.13;;
12088;SDS011;6107;49.078;8.578;2022-07-29T00:58:15;7.10;;;5.40;;
12088;SDS011;6107;49.078;8.578;2022-07-29T01:00:40;6.47;;;5.10;;
12088;SDS011;6107;49.078;8.578;2022-07-29T01:03:06;7.85;;;5.40;;
12088;SDS011;6107;49.078;8.578;2022-07-29T01:05:32;8.27;;;4.88;;
12088;SDS011;6107;49.078;8.578;2022-07-29T01:07:59;7.22;;;5.25;;
12088;SDS011;6107;49.078;8.578;2022-07-29T01:10:26;5.80;;;5.20;;
12088;SDS011;6107;49.078;8.578;2022-07-29T01:12:52;5.75;;;5.13;;
12088;SDS011;6107;49.078;8.578;2022-07-29T01:15:19;6.85;;;5.40;;
12088;SDS011;6107;49.078;8.578;2022-07-29T01:17:48;6.25;;;5.03;;
12088;SDS011;6107;49.078;8.578;2022-07-29T01:20:26;7.43;;;5.68;;
12088;SDS011;6107;49.078;8.578;2022-07-29T01:23:18;6.80;;;5.18;;
12088;SDS011;6107;49.078;8.578;2022-07-29T01:25:48;6.53;;;5.57;;
12088;SDS011;6107;49.078;8.578;2022-07-29T01:31:05;5.95;;;5.38;;
12088;SDS011;6107;49.078;8.578;2022-07-29T01:33:34;6.03;;;5.40;;
12088;SDS011;6107;49.078;8.578;2022-07-29T01:36:17;6.50;;;5.35;;
12088;SDS011;6107;49.078;8.578;2022-07-29T01:39:08;8.95;;;5.85;;
12088;SDS011;6107;49.078;8.578;2022-07-29T01:41:38;6.18;;;5.20;;
12088;SDS011;6107;49.078;8.578;2022-07-29T01:44:11;6.63;;;5.10;;
12088;SDS011;6107;49.078;8.578;2022-07-29T01:46:44;7.07;;;5.28;;
12088;SDS011;6107;49.078;8.578;2022-07-29T01:49:19;6.65;;;5.15;;
12088;SDS011;6107;49.078;8.578;2022-07-29T01:51:54;6.45;;;5.03;;
12088;SDS011;6107;49.078;8.578;2022-07-29T01:54:42;6.88;;;5.38;;
12088;SDS011;6107;49.078;8.578;2022-07-29T01:57:11;7.15;;;5.32;;
12088;SDS011;6107;49.078;8.578;2022-07-29T01:59:39;7.50;;;5.60;;
12088;SDS011;6107;49.078;8.578;2022-07-29T02:02:08;7.25;;;5.88;;
12088;SDS011;6107;49.078;8.578;2022-07-29T02:04:35;6.57;;;5.35;;
12088;SDS011;6107;49.078;8.578;2022-07-29T02:07:03;6.05;;;5.45;;
12088;SDS011;6107;49.078;8.578;2022-07-29T02:09:31;9.07;;;5.68;;
12088;SDS011;6107;49.078;8.578;2022-07-29T02:12:00;7.30;;;5.63;;
12088;SDS011;6107;49.078;8.578;2022-07-29T02:14:28;6.95;;;5.20;;
12088;SDS011;6107;49.078;8.578;2022-07-29T02:16:58;7.88;;;5.55;;
12088;SDS011;6107;49.078;8.578;2022-07-29T02:19:26;6.25;;;5.45;;
12088;SDS011;6107;49.078;8.578;2022-07-29T02:21:54;6.10;;;5.53;;
12088;SDS011;6107;49.078;8.578;2022-07-29T02:24:22;6.78;;;5.93;;
12088;SDS011;6107;49.078;8.578;2022-07-29T02:26:49;8.35;;;5.78;;
12088;SDS011;6107;49.078;8.578;2022-07-29T02:29:18;6.40;;;5.68;;
12088;SDS011;6107;49.078;8.578;2022-07-29T02:31:47;8.18;;;5.30;;
12088;SDS011;6107;49.078;8.578;2022-07-29T02:34:14;8.18;;;6.28;;
12088;SDS011;6107;49.078;8.578;2022-07-29T02:36:41;7.35;;;5.70;;
12088;SDS011;6107;49.078;8.578;2022-07-29T02:39:09;9.45;;;5.60;;
12088;SDS011;6107;49.078;8.578;2022-07-29T02:41:38;6.63;;;5.75;;
12088;SDS011;6107;49.078;8.578;2022-07-29T02:44:08;7.22;;;5.88;;
12088;SDS011;6107;49.078;8.578;2022-07-29T02:46:35;6.28;;;5.68;;
12088;SDS011;6107;49.078;8.578;2022-07-29T02:49:10;7.90;;;5.78;;
12088;SDS011;6107;49.078;8.578;2022-07-29T02:51:45;6.43;;;5.55;;
12088;SDS011;6107;49.078;8.578;2022-07-29T02:54:46;6.22;;;5.60;;
12088;SDS011;6107;49.078;8.578;2022-07-29T02:57:06;5.88;;;5.38;;
12088;SDS011;6107;49.078;8.578;2022-07-29T02:59:35;7.10;;;5.75;;
12088;SDS011;6107;49.078;8.578;2022-07-29T03:02:02;8.18;;;5.82;;
12088;SDS011;6107;49.078;8.578;2022-07-29T03:04:30;6.80;;;5.25;;
12088;SDS011;6107;49.078;8.578;2022-07-29T03:06:58;8.82;;;5.72;;
12088;SDS011;6107;49.078;8.578;2022-07-29T03:09:24;9.18;;;5.70;;
12088;SDS011;6107;49.078;8.578;2022-07-29T03:11:51;8.68;;;5.88;;
12088;SDS011;6107;49.078;8.578;2022-07-29T03:14:19;6.40;;;5.78;;
12088;SDS011;6107;49.078;8.578;2022-07-29T03:16:45;8.02;;;5.50;;
12088;SDS011;6107;49.078;8.578;2022-07-29T03:19:11;6.68;;;5.93;;
12088;SDS011;6107;49.078;8.578;2022-07-29T03:21:37;8.02;;;6.05;;
12088;SDS011;6107;49.078;8.578;2022-07-29T03:24:03;9.38;;;6.13;;
12088;SDS011;6107;49.078;8.578;2022-07-29T03:26:29;6.10;;;5.50;;
12088;SDS011;6107;49.078;8.578;2022-07-29T03:28:55;6.70;;;5.40;;
12088;SDS011;6107;49.078;8.578;2022-07-29T03:31:20;8.63;;;6.18;;
12088;SDS011;6107;49.078;8.578;2022-07-29T03:33:46;7.40;;;6.28;;
12088;SDS011;6107;49.078;8.578;2022-07-29T03:36:12;6.90;;;6.10;;
12088;SDS011;6107;49.078;8.578;2022-07-29T03:38:38;8.77;;;6.00;;
12088;SDS011;6107;49.078;8.578;2022-07-29T03:41:09;6.47;;;5.80;;
12088;SDS011;6107;49.078;8.578;2022-07-29T03:43:37;7.28;;;5.95;;
12088;SDS011;6107;49.078;8.578;2022-07-29T03:46:09;7.60;;;6.78;;
12088;SDS011;6107;49.078;8.578;2022-07-29T03:48:36;7.40;;;6.70;;
12088;SDS011;6107;49.078;8.578;2022-07-29T03:51:07;7.80;;;7.00;;
12088;SDS011;6107;49.078;8.578;2022-07-29T03:53:32;7.57;;;6.87;;
12088;SDS011;6107;49.078;8.578;2022-07-29T03:56:00;7.88;;;7.10;;
12088;SDS011;6107;49.078;8.578;2022-07-29T03:58:28;8.20;;;7.35;;
12088;SDS011;6107;49.078;8.578;2022-07-29T04:00:56;7.65;;;6.95;;
12088;SDS011;6107;49.078;8.578;2022-07-29T04:03:22;7.95;;;7.05;;
12088;SDS011;6107;49.078;8.578;2022-07-29T04:05:57;7.70;;;6.90;;
12088;SDS011;6107;49.078;8.578;2022-07-29T04:08:29;8.17;;;6.77;;
12088;SDS011;6107;49.078;8.578;2022-07-29T04:10:55;7.72;;;6.97;;
12088;SDS011;6107;49.078;8.578;2022-07-29T04:13:21;8.83;;;7.40;;
12088;SDS011;6107;49.078;8.578;2022-07-29T04:15:46;7.95;;;7.15;;
12088;SDS011;6107;49.078;8.578;2022-07-29T04:18:12;7.40;;;6.70;;
12088;SDS011;6107;49.078;8.578;2022-07-29T04:20:37;8.10;;;7.30;;
12088;SDS011;6107;49.078;8.578;2022-07-29T04:23:03;8.70;;;6.50;;
12088;SDS011;6107;49.078;8.578;2022-07-29T04:25:29;8.20;;;7.35;;
12088;SDS011;6107;49.078;8.578;2022-07-29T04:27:54;8.30;;;6.90;;
12088;SDS011;6107;49.078;8.578;2022-07-29T04:30:26;9.02;;;6.90;;
12088;SDS011;6107;49.078;8.578;2022-07-29T04:32:52;7.68;;;6.97;;
12088;SDS011;6107;49.078;8.578;2022-07-29T04:35:18;9.90;;;7.57;;
12088;SDS011;6107;49.078;8.578;2022-07-29T04:37:44;8.35;;;7.50;;
12088;SDS011;6107;49.078;8.578;2022-07-29T04:40:10;8.63;;;7.27;;
12088;SDS011;6107;49.078;8.578;2022-07-29T04:42:36;7.25;;;6.55;;
12088;SDS011;6107;49.078;8.578;2022-07-29T04:45:02;7.50;;;6.80;;
12088;SDS011;6107;49.078;8.578;2022-07-29T04:47:28;9.05;;;8.05;;
12088;SDS011;6107;49.078;8.578;2022-07-29T04:49:54;8.97;;;7.73;;
12088;SDS011;6107;49.078;8.578;2022-07-29T04:52:21;8.50;;;7.35;;
12088;SDS011;6107;49.078;8.578;2022-07-29T04:54:47;7.85;;;7.15;;
12088;SDS011;6107;49.078;8.578;2022-07-29T04:57:12;8.33;;;7.43;;
12088;SDS011;6107;49.078;8.578;2022-07-29T04:59:38;7.72;;;6.78;;
12088;SDS011;6107;49.078;8.578;2022-07-29T05:02:03;9.70;;;7.30;;
12088;SDS011;6107;49.078;8.578;2022-07-29T05:04:29;8.10;;;7.30;;
12088;SDS011;6107;49.078;8.578;2022-07-29T05:06:54;7.82;;;7.07;;
12088;SDS011;6107;49.078;8.578;2022-07-29T05:09:20;7.43;;;6.60;;
12088;SDS011;6107;49.078;8.578;2022-07-29T05:11:45;7.53;;;6.83;;
12088;SDS011;6107;49.078;8.578;2022-07-29T05:14:11;9.40;;;6.80;;
12088;SDS011;6107;49.078;8.578;2022-07-29T05:16:36;7.63;;;6.83;;
12088;SDS011;6107;49.078;8.578;2022-07-29T05:19:04;7.50;;;6.78;;
12088;SDS011;6107;49.078;8.578;2022-07-29T05:21:29;7.57;;;6.77;;
12088;SDS011;6107;49.078;8.578;2022-07-29T05:23:55;7.50;;;6.80;;
12088;SDS011;6107;49.078;8.578;2022-07-29T05:26:20;8.90;;;6.80;;
12088;SDS011;6107;49.078;8.578;2022-07-29T05:28:46;7.50;;;6.60;;
12088;SDS011;6107;49.078;8.578;2022-07-29T05:31:11;9.23;;;6.95;;
12088;SDS011;6107;49.078;8.578;2022-07-29T05:33:39;7.57;;;6.88;;
12088;SDS011;6107;49.078;8.578;2022-07-29T05:36:05;7.65;;;6.28;;
12088;SDS011;6107;49.078;8.578;2022-07-29T05:38:31;5.63;;;5.03;;
12088;SDS011;6107;49.078;8.578;2022-07-29T05:40:58;6.95;;;5.22;;
12088;SDS011;6107;49.078;8.578;2022-07-29T05:43:24;6.50;;;5.60;;
12088;SDS011;6107;49.078;8.578;2022-07-29T05:45:50;6.20;;;5.57;;
12088;SDS011;6107;49.078;8.578;2022-07-29T05:48:16;7.03;;;6.32;;
12088;SDS011;6107;49.078;8.578;2022-07-29T05:50:42;7.55;;;5.80;;
12088;SDS011;6107;49.078;8.578;2022-07-29T05:53:08;7.90;;;6.63;;
12088;SDS011;6107;49.078;8.578;2022-07-29T05:55:33;6.63;;;6.00;;
12088;SDS011;6107;49.078;8.578;2022-07-29T05:57:59;7.05;;;5.82;;
12088;SDS011;6107;49.078;8.578;2022-07-29T06:00:24;7.63;;;6.93;;
12088;SDS011;6107;49.078;8.578;2022-07-29T06:02:50;7.30;;;6.60;;
12088;SDS011;6107;49.078;8.578;2022-07-29T06:05:16;8.07;;;7.00;;
12088;SDS011;6107;49.078;8.578;2022-07-29T06:07:42;7.75;;;6.22;;
12088;SDS011;6107;49.078;8.578;2022-07-29T06:10:07;8.37;;;6.83;;
12088;SDS011;6107;49.078;8.578;2022-07-29T06:12:34;8.05;;;7.00;;
12088;SDS011;6107;49.078;8.578;2022-07-29T06:14:59;8.23;;;6.77;;
12088;SDS011;6107;49.078;8.578;2022-07-29T06:17:25;10.23;;;6.35;;
12088;SDS011;6107;49.078;8.578;2022-07-29T06:19:50;8.57;;;6.60;;
12088;SDS011;6107;49.078;8.578;2022-07-29T06:22:16;7.33;;;6.47;;
12088;SDS011;6107;49.078;8.578;2022-07-29T06:24:42;8.93;;;6.47;;
12088;SDS011;6107;49.078;8.578;2022-07-29T06:27:09;8.63;;;6.68;;
12088;SDS011;6107;49.078;8.578;2022-07-29T06:29:35;7.53;;;6.50;;
12088;SDS011;6107;49.078;8.578;2022-07-29T06:32:01;9.73;;;7.23;;
12088;SDS011;6107;49.078;8.578;2022-07-29T06:34:27;7.65;;;6.70;;
12088;SDS011;6107;49.078;8.578;2022-07-29T06:36:52;9.85;;;6.82;;
12088;SDS011;6107;49.078;8.578;2022-07-29T06:39:18;8.63;;;6.90;;
12088;SDS011;6107;49.078;8.578;2022-07-29T06:41:46;8.73;;;7.20;;
12088;SDS011;6107;49.078;8.578;2022-07-29T06:44:13;9.50;;;7.03;;
12088;SDS011;6107;49.078;8.578;2022-07-29T06:46:39;8.13;;;7.13;;
12088;SDS011;6107;49.078;8.578;2022-07-29T06:49:04;9.27;;;6.93;;
12088;SDS011;6107;49.078;8.578;2022-07-29T06:51:30;7.83;;;6.63;;
12088;SDS011;6107;49.078;8.578;2022-07-29T06:53:56;8.43;;;6.60;;
12088;SDS011;6107;49.078;8.578;2022-07-29T06:56:25;9.00;;;6.72;;
12088;SDS011;6107;49.078;8.578;2022-07-29T06:58:51;10.30;;;6.90;;
12088;SDS011;6107;49.078;8.578;2022-07-29T07:01:17;9.55;;;7.10;;
12088;SDS011;6107;49.078;8.578;2022-07-29T07:03:42;7.23;;;6.10;;
12088;SDS011;6107;49.078;8.578;2022-07-29T07:06:08;7.90;;;6.30;;
12088;SDS011;6107;49.078;8.578;2022-07-29T07:08:33;8.00;;;6.70;;
12088;SDS011;6107;49.078;8.578;2022-07-29T07:10:59;8.77;;;6.47;;
12088;SDS011;6107;49.078;8.578;2022-07-29T07:13:25;7.73;;;6.23;;
12088;SDS011;6107;49.078;8.578;2022-07-29T07:15:50;9.00;;;6.22;;
12088;SDS011;6107;49.078;8.578;2022-07-29T07:18:16;7.72;;;6.63;;
12088;SDS011;6107;49.078;8.578;2022-07-29T07:20:43;8.23;;;6.70;;
12088;SDS011;6107;49.078;8.578;2022-07-29T07:23:09;7.32;;;6.53;;
12088;SDS011;6107;49.078;8.578;2022-07-29T07:25:34;7.57;;;6.43;;
12088;SDS011;6107;49.078;8.578;2022-07-29T07:28:01;7.22;;;6.50;;
12088;SDS011;6107;49.078;8.578;2022-07-29T07:30:27;8.07;;;6.78;;
12088;SDS011;6107;49.078;8.578;2022-07-29T07:32:53;8.43;;;6.57;;
12088;SDS011;6107;49.078;8.578;2022-07-29T07:35:18;8.50;;;6.78;;
12088;SDS011;6107;49.078;8.578;2022-07-29T07:37:44;9.63;;;6.88;;
12088;SDS011;6107;49.078;8.578;2022-07-29T07:40:11;7.30;;;6.53;;
12088;SDS011;6107;49.078;8.578;2022-07-29T07:42:37;8.50;;;6.28;;
12088;SDS011;6107;49.078;8.578;2022-07-29T07:45:04;8.40;;;6.70;;
12088;SDS011;6107;49.078;8.578;2022-07-29T07:47:31;7.43;;;6.65;;
12088;SDS011;6107;49.078;8.578;2022-07-29T07:49:56;8.20;;;6.60;;
12088;SDS011;6107;49.078;8.578;2022-07-29T07:52:22;7.65;;;6.40;;
12088;SDS011;6107;49.078;8.578;2022-07-29T07:54:48;8.15;;;7.00;;
12088;SDS011;6107;49.078;8.578;2022-07-29T07:57:15;9.88;;;7.03;;
12088;SDS011;6107;49.078;8.578;2022-07-29T07:59:41;7.90;;;7.05;;
12088;SDS011;6107;49.078;8.578;2022-07-29T08:02:07;9.65;;;6.72;;
12088;SDS011;6107;49.078;8.578;2022-07-29T08:04:34;9.10;;;7.00;;
12088;SDS011;6107;49.078;8.578;2022-07-29T08:07:00;9.60;;;6.80;;
12088;SDS011;6107;49.078;8.578;2022-07-29T08:09:26;8.55;;;6.82;;
12088;SDS011;6107;49.078;8.578;2022-07-29T08:11:53;7.97;;;6.47;;
12088;SDS011;6107;49.078;8.578;2022-07-29T08:14:19;8.05;;;6.60;;
12088;SDS011;6107;49.078;8.578;2022-07-29T08:16:44;8.53;;;6.57;;
12088;SDS011;6107;49.078;8.578;2022-07-29T08:19:10;7.53;;;5.90;;
12088;SDS011;6107;49.078;8.578;2022-07-29T08:21:37;7.80;;;6.32;;
12088;SDS011;6107;49.078;8.578;2022-07-29T08:24:03;7.77;;;6.47;;
12088;SDS011;6107;49.078;8.578;2022-07-29T08:26:47;8.93;;;6.38;;
12088;SDS011;6107;49.078;8.578;2022-07-29T08:29:13;10.27;;;6.27;;
12088;SDS011;6107;49.078;8.578;2022-07-29T08:31:39;8.07;;;6.57;;
12088;SDS011;6107;49.078;8.578;2022-07-29T08:34:05;8.40;;;6.20;;
12088;SDS011;6107;49.078;8.578;2022-07-29T08:36:31;7.03;;;5.85;;
12088;SDS011;6107;49.078;8.578;2022-07-29T08:38:58;6.78;;;5.78;;
12088;SDS011;6107;49.078;8.578;2022-07-29T08:41:24;6.77;;;5.40;;
12088;SDS011;6107;49.078;8.578;2022-07-29T08:43:50;8.57;;;5.90;;
12088;SDS011;6107;49.078;8.578;2022-07-29T08:46:17;7.13;;;5.40;;
12088;SDS011;6107;49.078;8.578;2022-07-29T08:48:43;6.32;;;5.22;;
12088;SDS011;6107;49.078;8.578;2022-07-29T08:51:12;7.00;;;5.22;;
12088;SDS011;6107;49.078;8.578;2022-07-29T08:53:40;6.73;;;5.00;;
12088;SDS011;6107;49.078;8.578;2022-07-29T08:56:07;6.30;;;5.20;;
12088;SDS011;6107;49.078;8.578;2022-07-29T08:58:38;5.78;;;5.00;;
12088;SDS011;6107;49.078;8.578;2022-07-29T09:01:04;6.30;;;4.75;;
12088;SDS011;6107;49.078;8.578;2022-07-29T09:03:32;5.57;;;4.80;;
12088;SDS011;6107;49.078;8.578;2022-07-29T09:06:01;5.72;;;4.72;;
12088;SDS011;6107;49.078;8.578;2022-07-29T09:08:27;6.65;;;5.18;;
12088;SDS011;6107;49.078;8.578;2022-07-29T09:10:53;8.45;;;5.00;;
12088;SDS011;6107;49.078;8.578;2022-07-29T09:13:21;7.20;;;4.87;;
12088;SDS011;6107;49.078;8.578;2022-07-29T09:15:47;7.82;;;4.82;;
12088;SDS011;6107;49.078;8.578;2022-07-29T09:18:32;6.07;;;4.68;;
12088;SDS011;6107;49.078;8.578;2022-07-29T09:21:03;5.13;;;4.32;;
12088;SDS011;6107;49.078;8.578;2022-07-29T09:23:59;5.22;;;4.20;;
12088;SDS011;6107;49.078;8.578;2022-07-29T09:26:44;5.07;;;4.30;;
12088;SDS011;6107;49.078;8.578;2022-07-29T09:29:12;8.15;;;4.10;;
12088;SDS011;6107;49.078;8.578;2022-07-29T09:31:44;4.78;;;3.83;;
12088;SDS011;6107;49.078;8.578;2022-07-29T09:34:11;5.55;;;4.22;;
12088;SDS011;6107;49.078;8.578;2022-07-29T09:36:38;7.50;;;4.05;;
12088;SDS011;6107;49.078;8.578;2022-07-29T09:39:12;6.72;;;4.18;;
12088;SDS011;6107;49.078;8.578;2022-07-29T09:41:51;5.70;;;4.10;;
12088;SDS011;6107;49.078;8.578;2022-07-29T09:44:18;6.22;;;4.13;;
12088;SDS011;6107;49.078;8.578;2022-07-29T09:47:00;6.37;;;3.83;;
12088;SDS011;6107;49.078;8.578;2022-07-29T09:49:34;6.03;;;4.03;;
12088;SDS011;6107;49.078;8.578;2022-07-29T09:52:14;6.77;;;4.17;;
12088;SDS011;6107;49.078;8.578;2022-07-29T09:54:39;6.85;;;4.18;;
12088;SDS011;6107;49.078;8.578;2022-07-29T09:57:09;5.35;;;3.90;;
12088;SDS011;6107;49.078;8.578;2022-07-29T09:59:55;6.70;;;3.95;;
12088;SDS011;6107;49.078;8.578;2022-07-29T10:02:28;6.68;;;4.22;;
12088;SDS011;6107;49.078;8.578;2022-07-29T10:04:55;6.43;;;3.88;;
12088;SDS011;6107;49.078;8.578;2022-07-29T10:07:20;6.30;;;4.17;;
12088;SDS011;6107;49.078;8.578;2022-07-29T10:09:56;7.00;;;4.00;;
12088;SDS011;6107;49.078;8.578;2022-07-29T10:12:22;5.45;;;3.95;;
12088;SDS011;6107;49.078;8.578;2022-07-29T10:14:48;5.63;;;4.03;;
12088;SDS011;6107;49.078;8.578;2022-07-29T10:17:14;5.27;;;4.10;;
12088;SDS011;6107;49.078;8.578;2022-07-29T10:19:41;5.40;;;3.90;;
12088;SDS011;6107;49.078;8.578;2022-07-29T10:22:07;7.28;;;4.10;;
12088;SDS011;6107;49.078;8.578;2022-07-29T10:24:35;6.25;;;3.88;;
12088;SDS011;6107;49.078;8.578;2022-07-29T10:27:05;5.35;;;3.58;;
12088;SDS011;6107;49.078;8.578;2022-07-29T10:29:32;5.88;;;3.88;;
12088;SDS011;6107;49.078;8.578;2022-07-29T10:34:47;5.57;;;3.73;;
12088;SDS011;6107;49.078;8.578;2022-07-29T10:40:11;7.55;;;4.00;;
12088;SDS011;6107;49.078;8.578;2022-07-29T10:43:27;7.28;;;3.70;;
12088;SDS011;6107;49.078;8.578;2022-07-29T10:45:58;6.88;;;4.13;;
12088;SDS011;6107;49.078;8.578;2022-07-29T10:48:25;5.47;;;3.70;;
12088;SDS011;6107;49.078;8.578;2022-07-29T10:51:01;5.15;;;3.90;;
12088;SDS011;6107;49.078;8.578;2022-07-29T10:56:28;4.88;;;3.90;;
12088;SDS011;6107;49.078;8.578;2022-07-29T11:01:46;4.63;;;3.75;;
12088;SDS011;6107;49.078;8.578;2022-07-29T11:04:12;5.55;;;3.88;;
12088;SDS011;6107;49.078;8.578;2022-07-29T11:09:25;5.00;;;3.97;;
12088;SDS011;6107;49.078;8.578;2022-07-29T11:11:51;5.60;;;3.75;;
12088;SDS011;6107;49.078;8.578;2022-07-29T11:14:18;5.07;;;3.60;;
12088;SDS011;6107;49.078;8.578;2022-07-29T11:17:04;5.65;;;3.55;;
12088;SDS011;6107;49.078;8.578;2022-07-29T11:19:31;7.80;;;3.80;;
12088;SDS011;6107;49.078;8.578;2022-07-29T11:21:57;5.78;;;3.72;;
12088;SDS011;6107;49.078;8.578;2022-07-29T11:24:24;5.15;;;3.85;;
12088;SDS011;6107;49.078;8.578;2022-07-29T11:29:48;5.70;;;3.72;;
12088;SDS011;6107;49.078;8.578;2022-07-29T11:32:18;4.30;;;3.90;;
12088;SDS011;6107;49.078;8.578;2022-07-29T11:34:45;4.97;;;3.78;;
12088;SDS011;6107;49.078;8.578;2022-07-29T11:39:43;5.30;;;3.80;;
12088;SDS011;6107;49.078;8.578;2022-07-29T11:47:34;4.78;;;3.80;;
12088;SDS011;6107;49.078;8.578;2022-07-29T11:50:06;4.90;;;3.77;;
12088;SDS011;6107;49.078;8.578;2022-07-29T11:52:34;4.37;;;3.80;;
12088;SDS011;6107;49.078;8.578;2022-07-29T11:55:03;4.20;;;3.78;;
12088;SDS011;6107;49.078;8.578;2022-07-29T11:57:29;5.03;;;3.60;;
12088;SDS011;6107;49.078;8.578;2022-07-29T11:59:55;4.25;;;3.78;;
12088;SDS011;6107;49.078;8.578;2022-07-29T12:02:22;5.05;;;3.72;;
12088;SDS011;6107;49.078;8.578;2022-07-29T12:07:15;5.15;;;3.53;;
12088;SDS011;6107;49.078;8.578;2022-07-29T12:09:48;4.22;;;3.75;;
12088;SDS011;6107;49.078;8.578;2022-07-29T12:12:16;4.72;;;4.18;;
12088;SDS011;6107;49.078;8.578;2022-07-29T12:14:42;4.35;;;3.95;;
12088;SDS011;6107;49.078;8.578;2022-07-29T12:17:33;5.20;;;4.20;;
12088;SDS011;6107;49.078;8.578;2022-07-29T12:20:01;6.10;;;4.30;;
12088;SDS011;6107;49.078;8.578;2022-07-29T12:25:00;6.40;;;4.28;;
12088;SDS011;6107;49.078;8.578;2022-07-29T12:27:27;3.85;;;3.50;;
12088;SDS011;6107;49.078;8.578;2022-07-29T12:29:57;6.93;;;4.30;;
12088;SDS011;6107;49.078;8.578;2022-07-29T12:32:31;5.45;;;3.80;;
12088;SDS011;6107;49.078;8.578;2022-07-29T12:35:15;5.37;;;4.00;;
12088;SDS011;6107;49.078;8.578;2022-07-29T12:37:44;4.78;;;3.88;;
12088;SDS011;6107;49.078;8.578;2022-07-29T12:40:12;4.93;;;4.15;;
12088;SDS011;6107;49.078;8.578;2022-07-29T12:42:41;5.18;;;3.67;;
12088;SDS011;6107;49.078;8.578;2022-07-29T12:45:06;4.10;;;3.70;;
12088;SDS011;6107;49.078;8.578;2022-07-29T12:47:32;6.45;;;3.80;;
12088;SDS011;6107;49.078;8.578;2022-07-29T12:50:12;4.95;;;4.10;;
12088;SDS011;6107;49.078;8.578;2022-07-29T12:52:42;5.13;;;3.63;;
12088;SDS011;6107;49.078;8.578;2022-07-29T12:55:08;7.18;;;3.92;;
12088;SDS011;6107;49.078;8.578;2022-07-29T12:57:44;5.90;;;4.00;;
12088;SDS011;6107;49.078;8.578;2022-07-29T13:00:12;5.22;;;3.65;;
12088;SDS011;6107;49.078;8.578;2022-07-29T13:02:39;5.20;;;3.75;;
12088;SDS011;6107;49.078;8.578;2022-07-29T13:05:06;4.37;;;3.97;;
12088;SDS011;6107;49.078;8.578;2022-07-29T13:07:33;6.72;;;3.90;;
12088;SDS011;6107;49.078;8.578;2022-07-29T13:10:11;5.13;;;3.60;;
12088;SDS011;6107;49.078;8.578;2022-07-29T13:15:26;4.78;;;3.95;;
12088;SDS011;6107;49.078;8.578;2022-07-29T13:17:52;4.20;;;3.80;;
12088;SDS011;6107;49.078;8.578;2022-07-29T13:20:17;5.00;;;3.88;;
12088;SDS011;6107;49.078;8.578;2022-07-29T13:22:47;4.32;;;3.90;;
12088;SDS011;6107;49.078;8.578;2022-07-29T13:25:13;6.13;;;3.38;;
12088;SDS011;6107;49.078;8.578;2022-07-29T13:27:38;5.50;;;3.30;;
12088;SDS011;6107;49.078;8.578;2022-07-29T13:30:08;4.32;;;3.28;;
12088;SDS011;6107;49.078;8.578;2022-07-29T13:32:34;4.50;;;2.90;;
12088;SDS011;6107;49.078;8.578;2022-07-29T13:35:02;4.32;;;3.20;;
12088;SDS011;6107;49.078;8.578;2022-07-29T13:37:29;4.45;;;2.90;;
12088;SDS011;6107;49.078;8.578;2022-07-29T13:39:55;4.40;;;2.77;;
12088;SDS011;6107;49.078;8.578;2022-07-29T13:42:22;3.53;;;2.78;;
12088;SDS011;6107;49.078;8.578;2022-07-29T13:44:48;5.03;;;2.80;;
12088;SDS011;6107;49.078;8.578;2022-07-29T13:47:15;7.22;;;2.92;;
12088;SDS011;6107;49.078;8.578;2022-07-29T13:49:41;4.85;;;2.70;;
12088;SDS011;6107;49.078;8.578;2022-07-29T13:52:07;3.83;;;2.75;;
12088;SDS011;6107;49.078;8.578;2022-07-29T13:54:33;4.75;;;2.53;;
12088;SDS011;6107;49.078;8.578;2022-07-29T13:57:02;3.72;;;2.53;;
12088;SDS011;6107;49.078;8.578;2022-07-29T13:59:28;4.13;;;2.70;;
12088;SDS011;6107;49.078;8.578;2022-07-29T14:01:54;4.87;;;2.60;;
12088;SDS011;6107;49.078;8.578;2022-07-29T14:04:19;3.03;;;2.53;;
12088;SDS011;6107;49.078;8.578;2022-07-29T14:06:46;5.93;;;2.70;;
12088;SDS011;6107;49.078;8.578;2022-07-29T14:09:11;3.83;;;2.58;;
12088;SDS011;6107;49.078;8.578;2022-07-29T14:11:37;3.40;;;2.40;;
12088;SDS011;6107;49.078;8.578;2022-07-29T14:14:03;3.72;;;2.20;;
12088;SDS011;6107;49.078;8.578;2022-07-29T14:16:29;2.88;;;2.20;;
12088;SDS011;6107;49.078;8.578;2022-07-29T14:18:54;4.38;;;2.40;;
12088;SDS011;6107;49.078;8.578;2022-07-29T14:21:20;2.92;;;2.15;;
12088;SDS011;6107;49.078;8.578;2022-07-29T14:23:45;4.07;;;2.10;;
12088;SDS011;6107;49.078;8.578;2022-07-29T14:26:11;3.50;;;2.17;;
12088;SDS011;6107;49.078;8.578;2022-07-29T14:28:36;3.50;;;2.15;;
12088;SDS011;6107;49.078;8.578;2022-07-29T14:31:02;3.42;;;2.30;;
12088;SDS011;6107;49.078;8.578;2022-07-29T14:33:27;3.13;;;2.20;;
12088;SDS011;6107;49.078;8.578;2022-07-29T14:35:53;4.28;;;2.08;;
12088;SDS011;6107;49.078;8.578;2022-07-29T14:38:18;4.03;;;2.20;;
12088;SDS011;6107;49.078;8.578;2022-07-29T14:40:44;2.80;;;2.30;;
12088;SDS011;6107;49.078;8.578;2022-07-29T14:43:11;2.50;;;2.10;;
12088;SDS011;6107;49.078;8.578;2022-07-29T14:45:38;4.80;;;2.40;;
12088;SDS011;6107;49.078;8.578;2022-07-29T14:48:04;3.47;;;2.33;;
12088;SDS011;6107;49.078;8.578;2022-07-29T14:50:30;4.30;;;2.20;;
12088;SDS011;6107;49.078;8.578;2022-07-29T14:52:55;3.75;;;2.22;;
12088;SDS011;6107;49.078;8.578;2022-07-29T14:55:21;2.97;;;2.20;;
12088;SDS011;6107;49.078;8.578;2022-07-29T14:57:47;4.10;;;2.00;;
12088;SDS011;6107;49.078;8.578;2022-07-29T15:00:13;4.00;;;2.30;;
12088;SDS011;6107;49.078;8.578;2022-07-29T15:02:38;3.70;;;2.13;;
12088;SDS011;6107;49.078;8.578;2022-07-29T15:05:04;2.67;;;2.10;;
12088;SDS011;6107;49.078;8.578;2022-07-29T15:07:30;3.70;;;2.10;;
12088;SDS011;6107;49.078;8.578;2022-07-29T15:09:56;3.05;;;2.00;;
12088;SDS011;6107;49.078;8.578;2022-07-29T15:12:21;3.08;;;2.10;;
12088;SDS011;6107;49.078;8.578;2022-07-29T15:14:47;3.83;;;2.10;;
12088;SDS011;6107;49.078;8.578;2022-07-29T15:17:12;3.40;;;2.20;;
12088;SDS011;6107;49.078;8.578;2022-07-29T15:19:38;2.83;;;2.03;;
12088;SDS011;6107;49.078;8.578;2022-07-29T15:22:03;4.03;;;1.95;;
12088;SDS011;6107;49.078;8.578;2022-07-29T15:24:32;3.42;;;1.90;;
12088;SDS011;6107;49.078;8.578;2022-07-29T15:26:57;4.03;;;2.45;;
12088;SDS011;6107;49.078;8.578;2022-07-29T15:29:23;3.00;;;2.07;;
12088;SDS011;6107;49.078;8.578;2022-07-29T15:31:48;4.07;;;2.20;;
12088;SDS011;6107;49.078;8.578;2022-07-29T15:34:14;4.87;;;2.13;;
12088;SDS011;6107;49.078;8.578;2022-07-29T15:36:40;3.47;;;2.00;;
12088;SDS011;6107;49.078;8.578;2022-07-29T15:39:06;3.67;;;2.08;;
12088;SDS011;6107;49.078;8.578;2022-07-29T15:41:32;4.00;;;1.90;;